sensor_id;sensor_type;location;lat;lon;timestamp;temperature;humidity
9658;DHT22;4867;48.112;11.622;2024-03-02T00:01:48;7.00;99.90
9658;DHT22;4867;48.112;11.622;2024-03-02T00:04:20;7.00;99.90
9658;DHT22;4867;48.112;11.622;2024-03-02T00:07:02;7.00;99.90
9658;DHT22;4867;48.112;11.622;2024-03-02T00:09:41;7.00;99.90
9658;DHT22;4867;48.112;11.622;2024-03-02T00:12:19;7.00;99.90
9658;DHT22;4867;48.112;11.622;2024-03-02T00:17:56;7.00;99.90
9658;DHT22;4867;48.112;11.622;2024-03-02T00:20:26;6.90;99.90
9658;DHT22;4867;48.112;11.622;2024-03-02T00:23:17;6.90;99.90
9658;DHT22;4867;48.112;11.622;2024-03-02T00:25:54;6.90;99.90
9658;DHT22;4867;48.112;11.622;2024-03-02T00:28:35;6.90;99.90
9658;DHT22;4867;48.112;11.622;2024-03-02T00:31:13;6.80;99.90
9658;DHT22;4867;48.112;11.622;2024-03-02T00:33:47;6.80;99.90
9658;DHT22;4867;48.112;11.622;2024-03-02T00:36:28;6.80;99.90
9658;DHT22;4867;48.112;11.622;2024-03-02T00:39:02;6.70;99.90
9658;DHT22;4867;48.112;11.622;2024-03-02T00:41:33;6.80;99.90
9658;DHT22;4867;48.112;11.622;2024-03-02T00:44:12;6.80;99.90
9658;DHT22;4867;48.112;11.622;2024-03-02T00:46:43;6.80;99.90
9658;DHT22;4867;48.112;11.622;2024-03-02T00:49:23;6.80;99.90
9658;DHT22;4867;48.112;11.622;2024-03-02T00:51:54;6.80;99.90
9658;DHT22;4867;48.112;11.622;2024-03-02T00:54:26;6.80;99.90
9658;DHT22;4867;48.112;11.622;2024-03-02T00:57:02;6.80;99.90
9658;DHT22;4867;48.112;11.622;2024-03-02T00:59:39;6.80;99.90
9658;DHT22;4867;48.112;11.622;2024-03-02T01:02:21;6.80;99.90
9658;DHT22;4867;48.112;11.622;2024-03-02T01:04:49;6.70;99.90
9658;DHT22;4867;48.112;11.622;2024-03-02T01:07:30;6.70;99.90
9658;DHT22;4867;48.112;11.622;2024-03-02T01:10:15;6.70;99.90
9658;DHT22;4867;48.112;11.622;2024-03-02T01:12:45;6.70;99.90
9658;DHT22;4867;48.112;11.622;2024-03-02T01:15:18;6.70;99.90
9658;DHT22;4867;48.112;11.622;2024-03-02T01:17:52;6.70;99.90
9658;DHT22;4867;48.112;11.622;2024-03-02T01:20:27;6.70;99.90
9658;DHT22;4867;48.112;11.622;2024-03-02T01:22:59;6.60;99.90
9658;DHT22;4867;48.112;11.622;2024-03-02T01:25:42;6.70;99.90
9658;DHT22;4867;48.112;11.622;2024-03-02T01:28:18;6.60;99.90
9658;DHT22;4867;48.112;11.622;2024-03-02T01:30:55;6.70;99.90
9658;DHT22;4867;48.112;11.622;2024-03-02T01:33:27;6.70;99.90
9658;DHT22;4867;48.112;11.622;2024-03-02T01:35:59;6.70;99.90
9658;DHT22;4867;48.112;11.622;2024-03-02T01:38:31;6.60;99.90
9658;DHT22;4867;48.112;11.622;2024-03-02T01:41:05;6.60;99.90
9658;DHT22;4867;48.112;11.622;2024-03-02T01:43:35;6.60;99.90
9658;DHT22;4867;48.112;11.622;2024-03-02T01:46:18;6.70;99.90
9658;DHT22;4867;48.112;11.622;2024-03-02T01:48:54;6.70;99.90
9658;DHT22;4867;48.112;11.622;2024-03-02T01:51:22;6.70;99.90
9658;DHT22;4867;48.112;11.622;2024-03-02T01:54:12;6.70;99.90
9658;DHT22;4867;48.112;11.622;2024-03-02T01:56:51;6.70;99.90
9658;DHT22;4867;48.112;11.622;2024-03-02T01:59:19;6.70;99.90
9658;DHT22;4867;48.112;11.622;2024-03-02T02:01:46;6.70;99.90
9658;DHT22;4867;48.112;11.622;2024-03-02T02:04:27;6.70;99.90
9658;DHT22;4867;48.112;11.622;2024-03-02T02:06:55;6.70;99.90
9658;DHT22;4867;48.112;11.622;2024-03-02T02:09:38;6.70;99.90
9658;DHT22;4867;48.112;11.622;2024-03-02T02:12:06;6.60;99.90
9658;DHT22;4867;48.112;11.622;2024-03-02T02:14:36;6.60;99.90
9658;DHT22;4867;48.112;11.622;2024-03-02T02:17:06;6.60;99.90
9658;DHT22;4867;48.112;11.622;2024-03-02T02:19:35;6.50;99.90
9658;DHT22;4867;48.112;11.622;2024-03-02T02:22:02;6.50;99.90
9658;DHT22;4867;48.112;11.622;2024-03-02T02:24:31;6.50;99.90
9658;DHT22;4867;48.112;11.622;2024-03-02T02:26:59;6.50;99.90
9658;DHT22;4867;48.112;11.622;2024-03-02T02:29:27;6.50;99.90
9658;DHT22;4867;48.112;11.622;2024-03-02T02:31:55;6.50;99.90
9658;DHT22;4867;48.112;11.622;2024-03-02T02:34:32;6.50;99.90
9658;DHT22;4867;48.112;11.622;2024-03-02T02:37:05;6.40;99.90
9658;DHT22;4867;48.112;11.622;2024-03-02T02:39:39;6.40;99.90
9658;DHT22;4867;48.112;11.622;2024-03-02T02:42:09;6.40;99.90
9658;DHT22;4867;48.112;11.622;2024-03-02T02:44:39;6.40;99.90
9658;DHT22;4867;48.112;11.622;2024-03-02T02:47:10;6.50;99.90
9658;DHT22;4867;48.112;11.622;2024-03-02T02:49:38;6.40;99.90
9658;DHT22;4867;48.112;11.622;2024-03-02T02:52:13;6.40;99.90
9658;DHT22;4867;48.112;11.622;2024-03-02T02:54:44;6.50;99.90
9658;DHT22;4867;48.112;11.622;2024-03-02T02:57:16;6.50;99.90
9658;DHT22;4867;48.112;11.622;2024-03-02T02:59:45;6.50;99.90
9658;DHT22;4867;48.112;11.622;2024-03-02T03:02:28;6.50;99.90
9658;DHT22;4867;48.112;11.622;2024-03-02T03:05:04;6.50;99.90
9658;DHT22;4867;48.112;11.622;2024-03-02T03:07:36;6.50;99.90
9658;DHT22;4867;48.112;11.622;2024-03-02T03:10:06;6.60;99.90
9658;DHT22;4867;48.112;11.622;2024-03-02T03:12:36;6.60;99.90
9658;DHT22;4867;48.112;11.622;2024-03-02T03:15:11;6.60;99.90
9658;DHT22;4867;48.112;11.622;2024-03-02T03:17:40;6.60;99.90
9658;DHT22;4867;48.112;11.622;2024-03-02T03:20:10;6.60;99.90
9658;DHT22;4867;48.112;11.622;2024-03-02T03:22:50;6.70;99.90
9658;DHT22;4867;48.112;11.622;2024-03-02T03:25:21;6.70;99.90
9658;DHT22;4867;48.112;11.622;2024-03-02T03:27:48;6.70;99.90
9658;DHT22;4867;48.112;11.622;2024-03-02T03:30:18;6.70;99.90
9658;DHT22;4867;48.112;11.622;2024-03-02T03:33:00;6.70;99.90
9658;DHT22;4867;48.112;11.622;2024-03-02T03:35:30;6.80;99.90
9658;DHT22;4867;48.112;11.622;2024-03-02T03:38:02;6.80;99.90
9658;DHT22;4867;48.112;11.622;2024-03-02T03:40:31;6.70;99.90
9658;DHT22;4867;48.112;11.622;2024-03-02T03:42:59;6.70;99.90
9658;DHT22;4867;48.112;11.622;2024-03-02T03:45:50;6.80;99.90
9658;DHT22;4867;48.112;11.622;2024-03-02T03:48:20;6.80;99.90
9658;DHT22;4867;48.112;11.622;2024-03-02T03:50:59;6.80;99.90
9658;DHT22;4867;48.112;11.622;2024-03-02T03:53:32;6.70;99.90
9658;DHT22;4867;48.112;11.622;2024-03-02T03:56:18;6.70;99.90
9658;DHT22;4867;48.112;11.622;2024-03-02T03:58:46;6.70;99.90
9658;DHT22;4867;48.112;11.622;2024-03-02T04:01:17;6.70;99.90
9658;DHT22;4867;48.112;11.622;2024-03-02T04:03:51;6.70;99.90
9658;DHT22;4867;48.112;11.622;2024-03-02T04:06:35;6.70;99.90
9658;DHT22;4867;48.112;11.622;2024-03-02T04:09:14;6.70;99.90
9658;DHT22;4867;48.112;11.622;2024-03-02T04:11:50;6.70;99.90
9658;DHT22;4867;48.112;11.622;2024-03-02T04:14:20;6.70;99.90
9658;DHT22;4867;48.112;11.622;2024-03-02T04:16:54;6.70;99.90
9658;DHT22;4867;48.112;11.622;2024-03-02T04:19:37;6.70;99.90
9658;DHT22;4867;48.112;11.622;2024-03-02T04:51:30;6.70;99.90
9658;DHT22;4867;48.112;11.622;2024-03-02T04:54:00;6.70;99.90
9658;DHT22;4867;48.112;11.622;2024-03-02T04:56:27;6.70;99.90
9658;DHT22;4867;48.112;11.622;2024-03-02T04:59:17;6.60;99.90
9658;DHT22;4867;48.112;11.622;2024-03-02T05:01:45;6.70;99.90
9658;DHT22;4867;48.112;11.622;2024-03-02T05:04:13;6.70;99.90
9658;DHT22;4867;48.112;11.622;2024-03-02T05:06:41;6.70;99.90
9658;DHT22;4867;48.112;11.622;2024-03-02T05:09:08;6.70;99.90
9658;DHT22;4867;48.112;11.622;2024-03-02T05:11:36;6.50;99.90
9658;DHT22;4867;48.112;11.622;2024-03-02T05:14:06;6.50;99.90
9658;DHT22;4867;48.112;11.622;2024-03-02T05:16:37;6.50;99.90
9658;DHT22;4867;48.112;11.622;2024-03-02T05:19:06;6.50;99.90
9658;DHT22;4867;48.112;11.622;2024-03-02T05:21:36;6.50;99.90
9658;DHT22;4867;48.112;11.622;2024-03-02T05:24:03;6.50;99.90
9658;DHT22;4867;48.112;11.622;2024-03-02T05:26:31;6.60;99.90
9658;DHT22;4867;48.112;11.622;2024-03-02T05:29:02;6.50;99.90
9658;DHT22;4867;48.112;11.622;2024-03-02T05:31:30;6.10;99.90
9658;DHT22;4867;48.112;11.622;2024-03-02T05:33:57;6.50;99.90
9658;DHT22;4867;48.112;11.622;2024-03-02T05:36:25;6.50;99.90
9658;DHT22;4867;48.112;11.622;2024-03-02T05:38:53;6.60;99.90
9658;DHT22;4867;48.112;11.622;2024-03-02T05:41:22;6.60;99.90
9658;DHT22;4867;48.112;11.622;2024-03-02T05:43:50;6.60;99.90
9658;DHT22;4867;48.112;11.622;2024-03-02T05:46:17;6.60;99.90
9658;DHT22;4867;48.112;11.622;2024-03-02T05:48:44;6.70;99.90
9658;DHT22;4867;48.112;11.622;2024-03-02T05:51:12;6.60;99.90
9658;DHT22;4867;48.112;11.622;2024-03-02T05:53:39;6.60;99.90
9658;DHT22;4867;48.112;11.622;2024-03-02T05:56:07;6.70;99.90
9658;DHT22;4867;48.112;11.622;2024-03-02T05:58:34;6.70;99.90
9658;DHT22;4867;48.112;11.622;2024-03-02T06:01:18;6.70;99.90
9658;DHT22;4867;48.112;11.622;2024-03-02T06:03:46;6.70;99.90
9658;DHT22;4867;48.112;11.622;2024-03-02T06:06:14;6.70;99.90
9658;DHT22;4867;48.112;11.622;2024-03-02T06:08:41;6.70;99.90
9658;DHT22;4867;48.112;11.622;2024-03-02T06:11:08;6.70;99.90
9658;DHT22;4867;48.112;11.622;2024-03-02T06:13:37;6.70;99.90
9658;DHT22;4867;48.112;11.622;2024-03-02T06:16:05;6.60;99.90
9658;DHT22;4867;48.112;11.622;2024-03-02T06:18:32;6.70;99.90
9658;DHT22;4867;48.112;11.622;2024-03-02T06:21:00;6.70;99.90
9658;DHT22;4867;48.112;11.622;2024-03-02T06:23:28;6.70;99.90
9658;DHT22;4867;48.112;11.622;2024-03-02T06:25:55;6.70;99.90
9658;DHT22;4867;48.112;11.622;2024-03-02T06:28:23;6.70;99.90
9658;DHT22;4867;48.112;11.622;2024-03-02T06:30:52;6.80;99.90
9658;DHT22;4867;48.112;11.622;2024-03-02T06:33:24;6.80;99.90
9658;DHT22;4867;48.112;11.622;2024-03-02T06:35:52;6.80;99.90
9658;DHT22;4867;48.112;11.622;2024-03-02T06:38:19;6.80;99.90
9658;DHT22;4867;48.112;11.622;2024-03-02T06:40:47;6.90;99.90
9658;DHT22;4867;48.112;11.622;2024-03-02T06:43:14;6.90;99.90
9658;DHT22;4867;48.112;11.622;2024-03-02T06:45:42;7.00;99.90
9658;DHT22;4867;48.112;11.622;2024-03-02T06:48:09;7.00;99.90
9658;DHT22;4867;48.112;11.622;2024-03-02T06:50:36;7.00;99.90
9658;DHT22;4867;48.112;11.622;2024-03-02T06:53:04;7.10;99.90
9658;DHT22;4867;48.112;11.622;2024-03-02T06:55:31;7.10;99.90
9658;DHT22;4867;48.112;11.622;2024-03-02T06:57:59;7.20;99.90
9658;DHT22;4867;48.112;11.622;2024-03-02T07:00:27;7.10;99.90
9658;DHT22;4867;48.112;11.622;2024-03-02T08:43:26;8.00;99.90
9658;DHT22;4867;48.112;11.622;2024-03-02T08:45:53;8.10;99.90
9658;DHT22;4867;48.112;11.622;2024-03-02T08:48:22;7.70;99.90
9658;DHT22;4867;48.112;11.622;2024-03-02T08:50:52;8.20;99.90
9658;DHT22;4867;48.112;11.622;2024-03-02T08:59:17;8.60;99.90
9658;DHT22;4867;48.112;11.622;2024-03-02T09:01:45;8.70;99.90
9658;DHT22;4867;48.112;11.622;2024-03-02T09:04:12;8.70;99.90
9658;DHT22;4867;48.112;11.622;2024-03-02T09:06:41;8.70;99.90
9658;DHT22;4867;48.112;11.622;2024-03-02T09:09:09;8.80;99.90
9658;DHT22;4867;48.112;11.622;2024-03-02T09:11:36;8.90;99.90
9658;DHT22;4867;48.112;11.622;2024-03-02T09:14:04;9.00;99.90
9658;DHT22;4867;48.112;11.622;2024-03-02T09:16:32;9.10;99.90
9658;DHT22;4867;48.112;11.622;2024-03-02T09:18:59;9.30;99.90
9658;DHT22;4867;48.112;11.622;2024-03-02T09:21:28;9.40;99.90
9658;DHT22;4867;48.112;11.622;2024-03-02T09:23:57;9.50;99.90
9658;DHT22;4867;48.112;11.622;2024-03-02T09:26:24;9.50;99.90
9658;DHT22;4867;48.112;11.622;2024-03-02T09:28:52;9.50;99.90
9658;DHT22;4867;48.112;11.622;2024-03-02T09:31:19;9.50;99.90
9658;DHT22;4867;48.112;11.622;2024-03-02T09:33:47;9.60;99.90
9658;DHT22;4867;48.112;11.622;2024-03-02T09:36:19;9.80;99.90
9658;DHT22;4867;48.112;11.622;2024-03-02T09:38:47;9.90;99.90
9658;DHT22;4867;48.112;11.622;2024-03-02T09:41:15;10.10;99.90
9658;DHT22;4867;48.112;11.622;2024-03-02T09:43:43;10.20;99.90
9658;DHT22;4867;48.112;11.622;2024-03-02T09:46:11;10.20;99.90
9658;DHT22;4867;48.112;11.622;2024-03-02T09:48:39;10.40;99.90
9658;DHT22;4867;48.112;11.622;2024-03-02T09:51:07;10.40;99.90
9658;DHT22;4867;48.112;11.622;2024-03-02T09:53:36;10.40;99.90
9658;DHT22;4867;48.112;11.622;2024-03-02T09:56:04;10.50;99.90
9658;DHT22;4867;48.112;11.622;2024-03-02T09:58:34;10.60;99.90
9658;DHT22;4867;48.112;11.622;2024-03-02T10:01:06;10.60;99.90
9658;DHT22;4867;48.112;11.622;2024-03-02T10:03:34;10.80;99.90
9658;DHT22;4867;48.112;11.622;2024-03-02T10:06:24;10.80;99.90
9658;DHT22;4867;48.112;11.622;2024-03-02T10:08:53;10.80;99.90
9658;DHT22;4867;48.112;11.622;2024-03-02T10:11:40;10.90;99.90
9658;DHT22;4867;48.112;11.622;2024-03-02T10:14:10;11.00;99.90
9658;DHT22;4867;48.112;11.622;2024-03-02T10:16:39;11.10;99.90
9658;DHT22;4867;48.112;11.622;2024-03-02T10:19:23;11.20;99.90
9658;DHT22;4867;48.112;11.622;2024-03-02T10:21:53;11.20;99.90
9658;DHT22;4867;48.112;11.622;2024-03-02T10:24:22;11.30;99.90
9658;DHT22;4867;48.112;11.622;2024-03-02T10:26:50;11.40;99.90
9658;DHT22;4867;48.112;11.622;2024-03-02T10:29:18;11.50;99.90
9658;DHT22;4867;48.112;11.622;2024-03-02T10:31:46;11.60;99.90
9658;DHT22;4867;48.112;11.622;2024-03-02T10:34:14;11.70;99.90
9658;DHT22;4867;48.112;11.622;2024-03-02T10:36:44;11.80;99.90
9658;DHT22;4867;48.112;11.622;2024-03-02T10:39:14;11.90;99.90
9658;DHT22;4867;48.112;11.622;2024-03-02T10:41:44;12.10;99.90
9658;DHT22;4867;48.112;11.622;2024-03-02T10:44:13;12.20;99.90
9658;DHT22;4867;48.112;11.622;2024-03-02T10:46:40;12.20;99.90
9658;DHT22;4867;48.112;11.622;2024-03-02T10:49:08;12.30;99.90
9658;DHT22;4867;48.112;11.622;2024-03-02T10:51:36;12.20;99.90
9658;DHT22;4867;48.112;11.622;2024-03-02T10:54:04;12.30;99.90
9658;DHT22;4867;48.112;11.622;2024-03-02T10:56:41;12.30;99.90
9658;DHT22;4867;48.112;11.622;2024-03-02T10:59:53;12.30;99.90
9658;DHT22;4867;48.112;11.622;2024-03-02T11:02:24;12.20;99.90
9658;DHT22;4867;48.112;11.622;2024-03-02T11:04:54;12.20;99.90
9658;DHT22;4867;48.112;11.622;2024-03-02T11:07:23;12.30;99.90
9658;DHT22;4867;48.112;11.622;2024-03-02T11:09:57;12.30;99.90
9658;DHT22;4867;48.112;11.622;2024-03-02T11:12:29;12.30;99.90
9658;DHT22;4867;48.112;11.622;2024-03-02T11:15:00;12.40;99.90
9658;DHT22;4867;48.112;11.622;2024-03-02T11:17:28;12.40;99.90
9658;DHT22;4867;48.112;11.622;2024-03-02T11:19:57;12.50;99.90
9658;DHT22;4867;48.112;11.622;2024-03-02T11:22:25;12.50;99.90
9658;DHT22;4867;48.112;11.622;2024-03-02T11:24:53;12.50;99.90
9658;DHT22;4867;48.112;11.622;2024-03-02T11:33:02;12.50;99.90
9658;DHT22;4867;48.112;11.622;2024-03-02T11:35:42;12.50;99.90
9658;DHT22;4867;48.112;11.622;2024-03-02T11:38:10;12.60;99.90
9658;DHT22;4867;48.112;11.622;2024-03-02T11:40:41;12.70;99.90
9658;DHT22;4867;48.112;11.622;2024-03-02T11:43:09;12.70;99.90
9658;DHT22;4867;48.112;11.622;2024-03-02T11:45:37;12.80;99.90
9658;DHT22;4867;48.112;11.622;2024-03-02T11:48:14;12.80;99.90
9658;DHT22;4867;48.112;11.622;2024-03-02T11:50:47;12.80;99.90
9658;DHT22;4867;48.112;11.622;2024-03-02T11:53:17;12.80;99.90
9658;DHT22;4867;48.112;11.622;2024-03-02T11:55:45;12.90;99.90
9658;DHT22;4867;48.112;11.622;2024-03-02T11:58:15;12.90;99.90
9658;DHT22;4867;48.112;11.622;2024-03-02T12:00:51;13.10;99.90
9658;DHT22;4867;48.112;11.622;2024-03-02T12:03:21;13.10;99.90
9658;DHT22;4867;48.112;11.622;2024-03-02T12:05:50;13.20;99.90
9658;DHT22;4867;48.112;11.622;2024-03-02T12:08:18;13.30;99.90
9658;DHT22;4867;48.112;11.622;2024-03-02T12:11:00;13.40;99.90
9658;DHT22;4867;48.112;11.622;2024-03-02T12:13:29;13.40;99.90
9658;DHT22;4867;48.112;11.622;2024-03-02T12:15:56;13.40;99.90
9658;DHT22;4867;48.112;11.622;2024-03-02T12:18:24;13.30;99.90
9658;DHT22;4867;48.112;11.622;2024-03-02T12:20:53;13.30;99.90
9658;DHT22;4867;48.112;11.622;2024-03-02T12:23:24;13.30;99.90
9658;DHT22;4867;48.112;11.622;2024-03-02T12:25:52;13.40;99.90
9658;DHT22;4867;48.112;11.622;2024-03-02T12:28:19;13.40;99.90
9658;DHT22;4867;48.112;11.622;2024-03-02T12:30:47;13.30;99.90
9658;DHT22;4867;48.112;11.622;2024-03-02T12:33:16;13.30;99.90
9658;DHT22;4867;48.112;11.622;2024-03-02T12:35:44;13.30;99.90
9658;DHT22;4867;48.112;11.622;2024-03-02T12:38:11;13.40;99.90
9658;DHT22;4867;48.112;11.622;2024-03-02T12:40:38;13.40;99.90
9658;DHT22;4867;48.112;11.622;2024-03-02T12:43:06;13.40;99.90
9658;DHT22;4867;48.112;11.622;2024-03-02T12:45:35;13.40;99.90
9658;DHT22;4867;48.112;11.622;2024-03-02T12:48:04;13.40;99.90
9658;DHT22;4867;48.112;11.622;2024-03-02T12:50:32;13.40;99.90
9658;DHT22;4867;48.112;11.622;2024-03-02T12:53:00;13.50;99.90
9658;DHT22;4867;48.112;11.622;2024-03-02T12:55:28;13.50;99.90
9658;DHT22;4867;48.112;11.622;2024-03-02T12:57:56;13.50;99.90
9658;DHT22;4867;48.112;11.622;2024-03-02T13:00:26;13.50;99.90
9658;DHT22;4867;48.112;11.622;2024-03-02T13:02:53;13.50;99.90
9658;DHT22;4867;48.112;11.622;2024-03-02T13:05:21;13.50;99.90
9658;DHT22;4867;48.112;11.622;2024-03-02T13:07:49;13.50;99.90
9658;DHT22;4867;48.112;11.622;2024-03-02T13:10:17;13.50;99.90
9658;DHT22;4867;48.112;11.622;2024-03-02T13:12:45;13.50;99.90
9658;DHT22;4867;48.112;11.622;2024-03-02T13:15:13;13.60;99.90
9658;DHT22;4867;48.112;11.622;2024-03-02T13:17:45;13.50;99.90
9658;DHT22;4867;48.112;11.622;2024-03-02T13:20:14;13.50;99.90
9658;DHT22;4867;48.112;11.622;2024-03-02T13:22:42;13.50;99.90
9658;DHT22;4867;48.112;11.622;2024-03-02T13:25:10;13.60;99.90
9658;DHT22;4867;48.112;11.622;2024-03-02T13:27:39;13.60;99.90
9658;DHT22;4867;48.112;11.622;2024-03-02T13:30:07;13.60;99.90
9658;DHT22;4867;48.112;11.622;2024-03-02T13:32:36;13.60;99.90
9658;DHT22;4867;48.112;11.622;2024-03-02T13:35:04;13.60;99.90
9658;DHT22;4867;48.112;11.622;2024-03-02T13:37:32;13.60;99.90
9658;DHT22;4867;48.112;11.622;2024-03-02T13:40:00;13.60;99.90
9658;DHT22;4867;48.112;11.622;2024-03-02T13:42:28;13.50;99.90
9658;DHT22;4867;48.112;11.622;2024-03-02T13:44:55;13.40;99.90
9658;DHT22;4867;48.112;11.622;2024-03-02T13:47:25;13.40;99.90
9658;DHT22;4867;48.112;11.622;2024-03-02T13:49:53;13.40;99.90
9658;DHT22;4867;48.112;11.622;2024-03-02T13:52:20;13.50;99.90
9658;DHT22;4867;48.112;11.622;2024-03-02T13:54:48;13.50;99.90
9658;DHT22;4867;48.112;11.622;2024-03-02T13:57:15;13.50;99.90
9658;DHT22;4867;48.112;11.622;2024-03-02T13:59:50;13.60;99.90
9658;DHT22;4867;48.112;11.622;2024-03-02T14:02:18;13.60;99.90
9658;DHT22;4867;48.112;11.622;2024-03-02T14:04:48;13.60;99.90
9658;DHT22;4867;48.112;11.622;2024-03-02T14:07:16;13.60;99.90
9658;DHT22;4867;48.112;11.622;2024-03-02T14:09:46;13.60;99.90
9658;DHT22;4867;48.112;11.622;2024-03-02T14:12:14;13.50;99.90
9658;DHT22;4867;48.112;11.622;2024-03-02T14:14:41;13.60;99.90
9658;DHT22;4867;48.112;11.622;2024-03-02T14:17:08;13.70;99.90
9658;DHT22;4867;48.112;11.622;2024-03-02T14:19:41;13.70;99.90
9658;DHT22;4867;48.112;11.622;2024-03-02T14:22:09;13.70;99.90
9658;DHT22;4867;48.112;11.622;2024-03-02T14:24:36;13.70;99.90
9658;DHT22;4867;48.112;11.622;2024-03-02T14:27:04;13.70;99.90
9658;DHT22;4867;48.112;11.622;2024-03-02T14:29:51;13.70;99.90
9658;DHT22;4867;48.112;11.622;2024-03-02T14:32:18;13.70;99.90
9658;DHT22;4867;48.112;11.622;2024-03-02T14:34:46;13.70;99.90
9658;DHT22;4867;48.112;11.622;2024-03-02T14:37:15;13.70;99.90
9658;DHT22;4867;48.112;11.622;2024-03-02T14:39:42;13.60;99.90
9658;DHT22;4867;48.112;11.622;2024-03-02T14:42:10;13.60;99.90
9658;DHT22;4867;48.112;11.622;2024-03-02T14:44:37;13.60;99.90
9658;DHT22;4867;48.112;11.622;2024-03-02T14:47:05;13.60;99.90
9658;DHT22;4867;48.112;11.622;2024-03-02T14:49:34;13.60;99.90
9658;DHT22;4867;48.112;11.622;2024-03-02T14:52:08;13.60;99.90
9658;DHT22;4867;48.112;11.622;2024-03-02T14:54:36;13.60;99.90
9658;DHT22;4867;48.112;11.622;2024-03-02T14:57:11;13.60;99.90
9658;DHT22;4867;48.112;11.622;2024-03-02T14:59:39;13.50;99.90
9658;DHT22;4867;48.112;11.622;2024-03-02T15:02:08;13.50;99.90
9658;DHT22;4867;48.112;11.622;2024-03-02T15:04:35;13.60;99.90
9658;DHT22;4867;48.112;11.622;2024-03-02T15:07:03;13.50;99.90
9658;DHT22;4867;48.112;11.622;2024-03-02T15:09:30;13.50;99.90
9658;DHT22;4867;48.112;11.622;2024-03-02T15:11:58;13.50;99.90
9658;DHT22;4867;48.112;11.622;2024-03-02T15:14:26;13.50;99.90
9658;DHT22;4867;48.112;11.622;2024-03-02T15:16:53;13.50;99.90
9658;DHT22;4867;48.112;11.622;2024-03-02T15:19:20;13.50;99.90
9658;DHT22;4867;48.112;11.622;2024-03-02T15:21:48;13.50;99.90
9658;DHT22;4867;48.112;11.622;2024-03-02T15:24:15;13.50;99.90
9658;DHT22;4867;48.112;11.622;2024-03-02T15:26:43;13.50;99.90
9658;DHT22;4867;48.112;11.622;2024-03-02T15:29:10;13.50;99.90
9658;DHT22;4867;48.112;11.622;2024-03-02T15:31:37;13.50;99.90
9658;DHT22;4867;48.112;11.622;2024-03-02T15:34:05;13.50;99.90
9658;DHT22;4867;48.112;11.622;2024-03-02T15:36:32;13.50;99.90
9658;DHT22;4867;48.112;11.622;2024-03-02T15:39:00;13.40;99.90
9658;DHT22;4867;48.112;11.622;2024-03-02T15:41:29;13.40;99.90
9658;DHT22;4867;48.112;11.622;2024-03-02T15:43:56;13.30;99.90
9658;DHT22;4867;48.112;11.622;2024-03-02T15:46:23;13.30;99.90
9658;DHT22;4867;48.112;11.622;2024-03-02T15:48:51;13.30;99.90
9658;DHT22;4867;48.112;11.622;2024-03-02T15:51:18;13.10;99.90
9658;DHT22;4867;48.112;11.622;2024-03-02T15:53:46;13.00;99.90
9658;DHT22;4867;48.112;11.622;2024-03-02T15:56:13;13.00;99.90
9658;DHT22;4867;48.112;11.622;2024-03-02T15:58:41;12.90;99.90
9658;DHT22;4867;48.112;11.622;2024-03-02T16:01:08;12.90;99.90
9658;DHT22;4867;48.112;11.622;2024-03-02T16:03:35;12.80;99.90
9658;DHT22;4867;48.112;11.622;2024-03-02T16:06:03;12.80;99.90
9658;DHT22;4867;48.112;11.622;2024-03-02T16:08:31;12.80;99.90
9658;DHT22;4867;48.112;11.622;2024-03-02T16:10:59;12.70;99.90
9658;DHT22;4867;48.112;11.622;2024-03-02T16:13:30;12.60;99.90
9658;DHT22;4867;48.112;11.622;2024-03-02T16:15:58;12.50;99.90
9658;DHT22;4867;48.112;11.622;2024-03-02T16:18:26;12.50;99.90
9658;DHT22;4867;48.112;11.622;2024-03-02T16:20:55;12.40;99.90
9658;DHT22;4867;48.112;11.622;2024-03-02T16:23:22;12.30;99.90
9658;DHT22;4867;48.112;11.622;2024-03-02T16:25:49;12.30;99.90
9658;DHT22;4867;48.112;11.622;2024-03-02T16:28:17;12.20;99.90
9658;DHT22;4867;48.112;11.622;2024-03-02T16:30:44;12.10;99.90
9658;DHT22;4867;48.112;11.622;2024-03-02T16:33:11;12.10;99.90
9658;DHT22;4867;48.112;11.622;2024-03-02T16:35:39;12.00;99.90
9658;DHT22;4867;48.112;11.622;2024-03-02T16:38:06;11.90;99.90
9658;DHT22;4867;48.112;11.622;2024-03-02T16:40:34;11.80;99.90
9658;DHT22;4867;48.112;11.622;2024-03-02T16:43:01;11.70;99.90
9658;DHT22;4867;48.112;11.622;2024-03-02T16:45:29;11.60;99.90
9658;DHT22;4867;48.112;11.622;2024-03-02T16:47:59;11.50;99.90
9658;DHT22;4867;48.112;11.622;2024-03-02T16:50:26;11.50;99.90
9658;DHT22;4867;48.112;11.622;2024-03-02T16:52:54;11.40;99.90
9658;DHT22;4867;48.112;11.622;2024-03-02T16:55:24;11.30;99.90
9658;DHT22;4867;48.112;11.622;2024-03-02T16:57:52;11.20;99.90
9658;DHT22;4867;48.112;11.622;2024-03-02T17:00:20;11.20;99.90
9658;DHT22;4867;48.112;11.622;2024-03-02T17:02:47;11.10;99.90
9658;DHT22;4867;48.112;11.622;2024-03-02T17:05:15;11.00;99.90
9658;DHT22;4867;48.112;11.622;2024-03-02T17:07:48;10.90;99.90
9658;DHT22;4867;48.112;11.622;2024-03-02T17:10:16;10.80;99.90
9658;DHT22;4867;48.112;11.622;2024-03-02T17:12:44;10.70;99.90
9658;DHT22;4867;48.112;11.622;2024-03-02T17:15:11;10.60;99.90
9658;DHT22;4867;48.112;11.622;2024-03-02T17:17:40;10.60;99.90
9658;DHT22;4867;48.112;11.622;2024-03-02T17:20:08;10.50;99.90
9658;DHT22;4867;48.112;11.622;2024-03-02T17:22:41;10.40;99.90
9658;DHT22;4867;48.112;11.622;2024-03-02T17:25:09;10.40;99.90
9658;DHT22;4867;48.112;11.622;2024-03-02T17:27:37;10.30;99.90
9658;DHT22;4867;48.112;11.622;2024-03-02T17:30:05;10.30;99.90
9658;DHT22;4867;48.112;11.622;2024-03-02T17:32:33;10.30;99.90
9658;DHT22;4867;48.112;11.622;2024-03-02T17:35:01;10.20;99.90
9658;DHT22;4867;48.112;11.622;2024-03-02T17:37:28;10.20;99.90
9658;DHT22;4867;48.112;11.622;2024-03-02T17:39:57;10.10;99.90
9658;DHT22;4867;48.112;11.622;2024-03-02T17:42:24;10.10;99.90
9658;DHT22;4867;48.112;11.622;2024-03-02T17:44:53;10.00;99.90
9658;DHT22;4867;48.112;11.622;2024-03-02T17:47:20;10.00;99.90
9658;DHT22;4867;48.112;11.622;2024-03-02T17:49:49;9.90;99.90
9658;DHT22;4867;48.112;11.622;2024-03-02T17:52:16;9.90;99.90
9658;DHT22;4867;48.112;11.622;2024-03-02T17:54:44;9.90;99.90
9658;DHT22;4867;48.112;11.622;2024-03-02T17:57:12;9.90;99.90
9658;DHT22;4867;48.112;11.622;2024-03-02T17:59:41;9.80;99.90
9658;DHT22;4867;48.112;11.622;2024-03-02T18:02:11;9.70;99.90
9658;DHT22;4867;48.112;11.622;2024-03-02T18:04:39;9.70;99.90
9658;DHT22;4867;48.112;11.622;2024-03-02T18:07:08;9.70;99.90
9658;DHT22;4867;48.112;11.622;2024-03-02T18:09:36;9.60;99.90
9658;DHT22;4867;48.112;11.622;2024-03-02T18:12:07;9.60;99.90
9658;DHT22;4867;48.112;11.622;2024-03-02T18:14:35;9.50;99.90
9658;DHT22;4867;48.112;11.622;2024-03-02T18:17:07;9.50;99.90
9658;DHT22;4867;48.112;11.622;2024-03-02T18:19:34;9.40;99.90
9658;DHT22;4867;48.112;11.622;2024-03-02T18:22:02;9.40;99.90
9658;DHT22;4867;48.112;11.622;2024-03-02T18:24:29;9.30;99.90
9658;DHT22;4867;48.112;11.622;2024-03-02T18:26:57;9.30;99.90
9658;DHT22;4867;48.112;11.622;2024-03-02T18:29:27;9.30;99.90
9658;DHT22;4867;48.112;11.622;2024-03-02T18:31:56;9.20;99.90
9658;DHT22;4867;48.112;11.622;2024-03-02T18:34:25;9.20;99.90
9658;DHT22;4867;48.112;11.622;2024-03-02T18:36:53;9.10;99.90
9658;DHT22;4867;48.112;11.622;2024-03-02T18:39:26;9.10;99.90